Nrc Columbia — WDA8288 — position and weather

sailwx.info

Track history (hours):
 
Tides and Currents Weather Stations Pressure Air Temp Water Temp Dewpoint Dewpoint Depression Visibility Wind Speed Wind Dir Waves Ship Positions

Nrc Columbia

Owner: National Response Corporation, The Woodlands, TX. More information available from US FCC via Universal Licensing System and Coast Guard Vessel Documentation Center.

Last reported at 2017-Jan-24 11:09 UTC. Time now 2017-Jan-24 13:20 UTC.
Position N 48°50' W 122°43'.

Length 35 m.

Type: Pollution control. MMSI: 366710170.

Date/timePositionNaut miles runAvg speedWind from/ knotsBaromVisibWave heightAir tempDewpointWater temp
2017-Jan-24 11:09N 48°50' W 122°43'0 0.0
2017-Jan-24 05:30N 48°50' W 122°43'0 0.0
2017-Jan-23 13:27N 48°50' W 122°43'0 0.0
2017-Jan-23 10:18N 48°50' W 122°43'0 0.0
2017-Jan-23 09:27N 48°50' W 122°43'0 0.0
2017-Jan-23 08:24N 48°50' W 122°43'0 0.0
2017-Jan-23 06:18N 48°50' W 122°43'0 0.0
2017-Jan-23 04:06N 48°50' W 122°43'0 0.0
2017-Jan-23 02:30N 48°50' W 122°43'0 0.0
2017-Jan-22 16:24N 48°50' W 122°43'0 0.0
2017-Jan-22 12:27N 48°50' W 122°43'0 0.0
2017-Jan-22 06:18N 48°50' W 122°43'0 0.0
2017-Jan-22 05:24N 48°50' W 122°43'0 0.0
2017-Jan-21 23:27N 48°50' W 122°43'0 0.0
2017-Jan-21 21:33N 48°50' W 122°43'0 0.0
2017-Jan-21 03:21N 48°50' W 122°43'0 0.0
2017-Jan-21 00:12N 48°50' W 122°43'0 0.0
2017-Jan-20 19:09N 48°50' W 122°43'0 0.0
2017-Jan-20 14:27N 48°50' W 122°43'0 0.0
2017-Jan-20 11:06N 48°50' W 122°43'0 0.0
2017-Jan-20 10:06N 48°50' W 122°43'0 0.0
2017-Jan-20 09:30N 48°50' W 122°43'0 0.0
2017-Jan-20 06:18N 48°50' W 122°43'0 0.0
2017-Jan-19 22:33N 48°50' W 122°43'0 0.0
2017-Jan-19 12:06N 48°50' W 122°43'0 0.0
2017-Jan-19 03:30N 48°50' W 122°43'0 0.0
2017-Jan-18 22:12N 48°50' W 122°43'2 3.4
2017-Jan-18 21:33N 48°48' W 122°44'8 7.5
2017-Jan-18 20:33N 48°41' W 122°38'5 5.1
2017-Jan-18 19:33N 48°43' W 122°31'0 0.0
2017-Jan-18 18:33N 48°43' W 122°31'0 0.0
2017-Jan-18 17:33N 48°43' W 122°31'0 0.0
2017-Jan-18 16:33N 48°43' W 122°31'0 0.0
2017-Jan-18 15:33N 48°43' W 122°31'0 0.0
2017-Jan-18 14:33N 48°43' W 122°31'0 0.0
2017-Jan-18 13:33N 48°43' W 122°31'0 0.0
2017-Jan-18 12:33N 48°43' W 122°31'0 0.0
2017-Jan-18 11:33N 48°43' W 122°31'0 0.0
2017-Jan-18 10:33N 48°43' W 122°31'0 0.0
2017-Jan-18 09:33N 48°43' W 122°31'0 0.0
2017-Jan-18 08:33N 48°43' W 122°31'0 0.0
2017-Jan-18 07:33N 48°43' W 122°31'0 0.0
2017-Jan-18 06:33N 48°43' W 122°31'0 0.0
2017-Jan-18 05:33N 48°43' W 122°31'0 0.0
2017-Jan-18 04:33N 48°43' W 122°31'0 0.0
2017-Jan-18 03:33N 48°43' W 122°31'0 0.0
2017-Jan-18 02:33N 48°43' W 122°31'0 0.0
2017-Jan-18 01:33N 48°43' W 122°31'0 0.0
2017-Jan-18 00:33N 48°43' W 122°31'0 0.0
2017-Jan-17 23:33N 48°43' W 122°31'0 0.0
2017-Jan-17 22:32N 48°43' W 122°31'4 3.7
2017-Jan-17 21:33N 48°40' W 122°33'8 7.6
2017-Jan-17 20:32N 48°45' W 122°42'5 0.5
2017-Jan-17 10:10N 48°50' W 122°43'0 0.0
2017-Jan-17 08:10N 48°50' W 122°43'0 0.0
2017-Jan-17 07:28N 48°50' W 122°43'0 0.0
2017-Jan-17 05:28N 48°50' W 122°43'0 0.0
2017-Jan-16 23:19N 48°50' W 122°43'  
Track history (hours):
 
Tides and Currents Weather Stations Pressure Air Temp Water Temp Dewpoint Dewpoint Depression Visibility Wind Speed Wind Dir Waves Ship Positions

Nrc Columbia

Owner: National Response Corporation, The Woodlands, TX. More information available from US FCC via Universal Licensing System and Coast Guard Vessel Documentation Center.

Last reported at 2017-Jan-24 11:09 UTC. Time now 2017-Jan-24 13:20 UTC.
Position N 48°50' W 122°43'.

Length 35 m.

Type: Pollution control. MMSI: 366710170.

Date/timePositionNaut miles runAvg speedWind from/ knotsBaromVisibWave heightAir tempDewpointWater temp
2017-Jan-24 11:09N 48°50' W 122°43'0 0.0
2017-Jan-24 05:30N 48°50' W 122°43'0 0.0
2017-Jan-23 13:27N 48°50' W 122°43'0 0.0
2017-Jan-23 10:18N 48°50' W 122°43'0 0.0
2017-Jan-23 09:27N 48°50' W 122°43'0 0.0
2017-Jan-23 08:24N 48°50' W 122°43'0 0.0
2017-Jan-23 06:18N 48°50' W 122°43'0 0.0
2017-Jan-23 04:06N 48°50' W 122°43'0 0.0
2017-Jan-23 02:30N 48°50' W 122°43'0 0.0
2017-Jan-22 16:24N 48°50' W 122°43'0 0.0
2017-Jan-22 12:27N 48°50' W 122°43'0 0.0
2017-Jan-22 06:18N 48°50' W 122°43'0 0.0
2017-Jan-22 05:24N 48°50' W 122°43'0 0.0
2017-Jan-21 23:27N 48°50' W 122°43'0 0.0
2017-Jan-21 21:33N 48°50' W 122°43'0 0.0
2017-Jan-21 03:21N 48°50' W 122°43'0 0.0
2017-Jan-21 00:12N 48°50' W 122°43'0 0.0
2017-Jan-20 19:09N 48°50' W 122°43'0 0.0
2017-Jan-20 14:27N 48°50' W 122°43'0 0.0
2017-Jan-20 11:06N 48°50' W 122°43'0 0.0
2017-Jan-20 10:06N 48°50' W 122°43'0 0.0
2017-Jan-20 09:30N 48°50' W 122°43'0 0.0
2017-Jan-20 06:18N 48°50' W 122°43'0 0.0
2017-Jan-19 22:33N 48°50' W 122°43'0 0.0
2017-Jan-19 12:06N 48°50' W 122°43'0 0.0
2017-Jan-19 03:30N 48°50' W 122°43'0 0.0
2017-Jan-18 22:12N 48°50' W 122°43'2 3.4
2017-Jan-18 21:33N 48°48' W 122°44'8 7.5
2017-Jan-18 20:33N 48°41' W 122°38'5 5.1
2017-Jan-18 19:33N 48°43' W 122°31'0 0.0
2017-Jan-18 18:33N 48°43' W 122°31'0 0.0
2017-Jan-18 17:33N 48°43' W 122°31'0 0.0
2017-Jan-18 16:33N 48°43' W 122°31'0 0.0
2017-Jan-18 15:33N 48°43' W 122°31'0 0.0
2017-Jan-18 14:33N 48°43' W 122°31'0 0.0
2017-Jan-18 13:33N 48°43' W 122°31'0 0.0
2017-Jan-18 12:33N 48°43' W 122°31'0 0.0
2017-Jan-18 11:33N 48°43' W 122°31'0 0.0
2017-Jan-18 10:33N 48°43' W 122°31'0 0.0
2017-Jan-18 09:33N 48°43' W 122°31'0 0.0
2017-Jan-18 08:33N 48°43' W 122°31'0 0.0
2017-Jan-18 07:33N 48°43' W 122°31'0 0.0
2017-Jan-18 06:33N 48°43' W 122°31'0 0.0
2017-Jan-18 05:33N 48°43' W 122°31'0 0.0
2017-Jan-18 04:33N 48°43' W 122°31'0 0.0
2017-Jan-18 03:33N 48°43' W 122°31'0 0.0
2017-Jan-18 02:33N 48°43' W 122°31'0 0.0
2017-Jan-18 01:33N 48°43' W 122°31'0 0.0
2017-Jan-18 00:33N 48°43' W 122°31'0 0.0
2017-Jan-17 23:33N 48°43' W 122°31'0 0.0
2017-Jan-17 22:32N 48°43' W 122°31'4 3.7
2017-Jan-17 21:33N 48°40' W 122°33'8 7.6
2017-Jan-17 20:32N 48°45' W 122°42'5 0.5
2017-Jan-17 10:10N 48°50' W 122°43'0 0.0
2017-Jan-17 08:10N 48°50' W 122°43'0 0.0
2017-Jan-17 07:28N 48°50' W 122°43'0 0.0
2017-Jan-17 05:28N 48°50' W 122°43'0 0.0
2017-Jan-16 23:19N 48°50' W 122°43'  

Dump ship's entire track history